createdAt,value
2022-09-22T00:09:32.703Z,7.80
2022-09-22T00:19:38.368Z,7.97
2022-09-22T00:29:42.575Z,8.10
2022-09-22T00:39:52.665Z,8.14
2022-09-22T00:50:14.646Z,8.05
2022-09-22T01:00:20.291Z,7.96
2022-09-22T01:10:24.226Z,7.74
2022-09-22T01:21:04.183Z,7.61
2022-09-22T01:31:16.082Z,7.32
2022-09-22T01:41:36.015Z,7.13
2022-09-22T01:51:45.913Z,6.98
2022-09-22T02:02:04.007Z,6.79
2022-09-22T02:12:06.010Z,6.64
2022-09-22T02:22:09.338Z,6.59
2022-09-22T02:32:16.186Z,6.55
2022-09-22T02:42:25.845Z,6.63
2022-09-22T02:52:28.975Z,6.53
2022-09-22T03:02:33.361Z,6.32
2022-09-22T03:12:36.056Z,6.20
2022-09-22T03:22:41.673Z,6.08
2022-09-22T03:32:43.324Z,6.01
2022-09-22T03:42:44.992Z,5.92
2022-09-22T03:52:47.061Z,5.90
2022-09-22T04:02:48.748Z,5.92
2022-09-22T04:12:50.433Z,6.26
2022-09-22T04:22:52.139Z,6.37
2022-09-22T04:32:55.159Z,6.24
2022-09-22T04:42:57.885Z,6.22
2022-09-22T04:52:59.737Z,6.30
2022-09-22T05:03:03.484Z,6.43
2022-09-22T05:13:07.199Z,6.61
2022-09-22T05:23:11.189Z,6.70
2022-09-22T05:33:13.948Z,7.02
2022-09-22T05:43:16.728Z,7.24
2022-09-22T05:53:18.308Z,7.41
2022-09-22T06:03:19.884Z,7.84
2022-09-22T06:13:21.765Z,8.12
2022-09-22T06:23:26.012Z,8.66
2022-09-22T06:33:30.400Z,9.28
2022-09-22T06:43:37.973Z,9.89
2022-09-22T06:53:39.805Z,10.44
2022-09-22T07:03:45.730Z,10.92
2022-09-22T07:13:53.485Z,11.32
2022-09-22T07:23:56.465Z,11.83
2022-09-22T07:34:01.389Z,13.07
2022-09-22T07:44:22.369Z,14.55
2022-09-22T07:54:25.609Z,15.46
2022-09-22T08:04:31.139Z,15.67
2022-09-22T08:14:33.877Z,15.11
2022-09-22T08:24:37.327Z,15.19
2022-09-22T08:34:44.614Z,15.89
2022-09-22T08:45:09.526Z,17.14
2022-09-22T08:55:22.507Z,17.76
2022-09-22T09:05:50.074Z,19.09
2022-09-22T09:16:06.975Z,18.80
2022-09-22T09:26:08.642Z,19.00
2022-09-22T09:36:17.668Z,19.87
2022-09-22T09:46:26.709Z,18.86
2022-09-22T09:56:30.189Z,19.19
2022-09-22T10:06:32.061Z,18.98
2022-09-22T10:16:36.246Z,18.71
2022-09-22T10:26:52.105Z,19.99
2022-09-22T10:36:54.625Z,22.99
2022-09-22T10:47:27.247Z,23.80
2022-09-22T10:57:56.267Z,23.91
2022-09-22T11:08:26.710Z,24.51
2022-09-22T11:18:58.557Z,26.33
2022-09-22T11:29:10.810Z,21.74
2022-09-22T11:39:26.435Z,18.79
2022-09-22T11:49:46.628Z,27.19
2022-09-22T12:00:08.484Z,18.93
2022-09-22T12:10:23.034Z,17.38
2022-09-22T12:20:45.079Z,20.89
2022-09-22T12:31:00.966Z,16.89
2022-09-22T12:41:08.252Z,18.91
2022-09-22T12:51:31.402Z,15.32
2022-09-22T13:01:34.810Z,15.20
2022-09-22T13:12:12.079Z,22.29
2022-09-22T13:22:20.700Z,25.33
2022-09-22T13:32:27.091Z,26.91
2022-09-22T13:42:34.237Z,28.10
2022-09-22T13:52:39.791Z,28.22
2022-09-22T14:02:44.525Z,30.66
2022-09-22T14:12:48.840Z,32.01
2022-09-22T14:22:50.556Z,31.31
2022-09-22T14:32:57.036Z,30.77
2022-09-22T14:43:09.662Z,28.71
2022-09-22T14:53:22.991Z,23.92
2022-09-22T15:03:29.619Z,17.73
2022-09-22T15:13:39.261Z,16.52
2022-09-22T15:23:45.088Z,16.72
2022-09-22T15:33:49.400Z,16.95
2022-09-22T15:43:52.613Z,17.40
2022-09-22T15:53:56.880Z,15.91
2022-09-22T16:04:00.428Z,15.16
2022-09-22T16:14:06.083Z,14.86
2022-09-22T16:24:10.229Z,15.09
2022-09-22T16:34:19.113Z,14.57
2022-09-22T16:44:22.103Z,14.15
2022-09-22T16:54:24.815Z,13.62
2022-09-22T17:04:33.049Z,12.97
2022-09-22T17:14:37.085Z,12.63
2022-09-22T17:24:40.762Z,12.25
2022-09-22T17:34:42.451Z,11.89
2022-09-22T17:44:44.388Z,11.66
2022-09-22T17:55:04.587Z,11.37
2022-09-22T18:05:09.216Z,11.06
2022-09-22T18:15:13.438Z,10.90
2022-09-22T18:25:16.773Z,10.72
2022-09-22T18:35:18.619Z,10.55
2022-09-22T18:45:20.539Z,10.53
2022-09-22T18:55:22.802Z,10.32
2022-09-22T19:05:27.682Z,10.19
2022-09-22T19:15:29.462Z,10.15
2022-09-22T19:25:32.644Z,9.97
2022-09-22T19:35:39.192Z,9.79
2022-09-22T19:45:41.293Z,9.54
2022-09-22T19:55:50.787Z,9.27
2022-09-22T20:05:52.946Z,9.14
2022-09-22T20:15:54.852Z,8.90
2022-09-22T20:26:03.835Z,8.88
2022-09-22T20:36:06.206Z,8.84
2022-09-22T20:46:09.446Z,8.84
2022-09-22T20:56:12.061Z,8.59
2022-09-22T21:06:17.045Z,8.30
2022-09-22T21:16:18.835Z,8.06
2022-09-22T21:26:20.953Z,8.01
2022-09-22T21:36:24.339Z,7.77
2022-09-22T21:46:29.633Z,7.47
2022-09-22T21:56:33.830Z,7.30
2022-09-22T22:06:43.138Z,7.22
2022-09-22T22:16:49.924Z,7.08
2022-09-22T22:26:54.806Z,7.00
2022-09-22T22:37:01.178Z,6.89
2022-09-22T22:47:05.443Z,6.80
2022-09-22T22:57:07.129Z,6.80
2022-09-22T23:07:08.801Z,6.64
2022-09-22T23:17:10.947Z,6.60
2022-09-22T23:27:21.892Z,6.47
2022-09-22T23:37:25.036Z,6.24
2022-09-22T23:47:28.959Z,6.17
2022-09-22T23:57:30.700Z,5.92
